createdAt,value
2017-08-13T00:00:59.303Z,16.00
2017-08-13T00:03:27.611Z,16.00
2017-08-13T00:05:55.901Z,16.00
2017-08-13T00:08:24.223Z,15.90
2017-08-13T00:10:53.283Z,15.90
2017-08-13T00:13:21.612Z,15.90
2017-08-13T00:15:49.932Z,15.90
2017-08-13T00:21:15.644Z,15.90
2017-08-13T00:23:44.735Z,15.80
2017-08-13T00:26:13.011Z,15.80
2017-08-13T00:28:41.343Z,15.90
2017-08-13T00:31:09.641Z,15.90
2017-08-13T00:33:37.938Z,15.90
2017-08-13T00:36:06.277Z,15.90
2017-08-13T00:38:36.306Z,15.90
2017-08-13T00:41:04.601Z,15.90
2017-08-13T00:43:32.933Z,15.90
2017-08-13T00:46:01.264Z,15.90
2017-08-13T00:48:29.548Z,15.90
2017-08-13T00:50:57.877Z,15.90
2017-08-13T00:53:26.200Z,15.90
2017-08-13T00:55:54.491Z,15.90
2017-08-13T00:58:22.824Z,15.90
2017-08-13T01:00:51.151Z,15.90
2017-08-13T01:03:19.457Z,15.90
2017-08-13T01:05:47.775Z,15.90
2017-08-13T01:08:16.104Z,15.80
2017-08-13T01:10:44.429Z,15.90
2017-08-13T01:13:12.716Z,15.90
2017-08-13T01:15:41.026Z,15.80
2017-08-13T01:18:09.354Z,15.80
2017-08-13T01:23:36.511Z,15.70
2017-08-13T01:26:04.814Z,15.60
2017-08-13T01:28:33.136Z,15.60
2017-08-13T01:31:01.462Z,15.60
2017-08-13T01:33:29.757Z,15.60
2017-08-13T01:35:58.084Z,15.60
2017-08-13T01:38:26.386Z,15.60
2017-08-13T01:40:54.711Z,15.50
2017-08-13T01:43:23.005Z,15.40
2017-08-13T01:45:52.069Z,15.50
2017-08-13T01:48:21.362Z,15.40
2017-08-13T01:50:49.661Z,15.40
2017-08-13T01:53:17.948Z,15.40
2017-08-13T01:55:47.047Z,15.40
2017-08-13T01:58:15.350Z,15.40
2017-08-13T02:00:43.636Z,15.50
2017-08-13T02:03:11.968Z,15.40
2017-08-13T02:05:41.019Z,15.50
2017-08-13T02:08:09.350Z,15.40
2017-08-13T02:10:37.639Z,15.40
2017-08-13T02:13:05.951Z,15.40
2017-08-13T02:15:34.267Z,15.50
2017-08-13T02:18:02.563Z,15.50
2017-08-13T02:20:30.892Z,15.60
2017-08-13T02:23:18.892Z,15.60
2017-08-13T02:25:47.203Z,15.60
2017-08-13T02:28:15.509Z,15.60
2017-08-13T02:30:43.820Z,15.50
2017-08-13T02:33:12.112Z,15.60
2017-08-13T02:35:40.447Z,15.60
2017-08-13T02:38:08.751Z,15.70
2017-08-13T02:40:37.038Z,15.70
2017-08-13T02:43:05.373Z,15.70
2017-08-13T02:45:33.669Z,15.80
2017-08-13T02:48:01.997Z,15.80
2017-08-13T02:50:30.546Z,15.70
2017-08-13T02:52:58.859Z,15.70
2017-08-13T02:55:27.183Z,15.70
2017-08-13T02:58:01.156Z,15.80
2017-08-13T03:00:29.494Z,15.80
2017-08-13T03:02:57.790Z,15.80
2017-08-13T03:05:26.115Z,15.70
2017-08-13T03:07:54.405Z,15.80
2017-08-13T03:10:22.702Z,15.80
2017-08-13T03:12:51.016Z,15.80
2017-08-13T03:15:19.329Z,15.90
2017-08-13T03:17:47.648Z,15.80
2017-08-13T03:20:16.949Z,15.70
2017-08-13T03:22:50.021Z,15.60
2017-08-13T03:25:18.314Z,15.60
2017-08-13T03:27:46.635Z,15.70
2017-08-13T03:30:14.964Z,15.70
2017-08-13T03:32:43.281Z,15.70
2017-08-13T03:38:34.116Z,15.80
2017-08-13T03:41:02.457Z,15.80
2017-08-13T03:43:30.793Z,15.80
2017-08-13T03:45:59.864Z,15.80
2017-08-13T03:51:25.413Z,15.80
2017-08-13T03:53:54.501Z,15.80
2017-08-13T03:56:22.820Z,15.80
2017-08-13T03:58:51.111Z,15.80
2017-08-13T04:01:19.572Z,15.80
2017-08-13T04:03:49.799Z,15.70
2017-08-13T04:06:18.136Z,15.80
2017-08-13T04:09:02.013Z,15.80
2017-08-13T04:11:30.699Z,15.90
2017-08-13T04:14:02.991Z,15.90
2017-08-13T04:16:36.665Z,15.80
2017-08-13T04:19:04.973Z,15.90
2017-08-13T04:21:34.363Z,15.90
2017-08-13T04:24:02.711Z,15.90
2017-08-13T04:26:31.815Z,15.90
2017-08-13T04:29:23.995Z,15.90
2017-08-13T04:31:53.467Z,15.90
2017-08-13T04:34:21.799Z,15.90
2017-08-13T04:36:50.124Z,15.80
2017-08-13T04:39:19.591Z,15.80
2017-08-13T04:41:47.939Z,15.80
2017-08-13T04:44:16.262Z,15.90
2017-08-13T04:46:44.577Z,15.90
2017-08-13T04:49:13.677Z,16.00
2017-08-13T04:51:41.975Z,16.00
2017-08-13T04:54:10.265Z,16.00
2017-08-13T04:56:38.583Z,16.10
2017-08-13T04:59:10.836Z,16.10
2017-08-13T05:01:39.188Z,16.10
2017-08-13T05:04:07.499Z,16.10
2017-08-13T05:06:35.812Z,16.30
2017-08-13T05:09:04.885Z,16.30
2017-08-13T05:11:33.211Z,16.30
2017-08-13T05:14:01.546Z,16.20
2017-08-13T05:16:29.839Z,16.30
2017-08-13T05:18:58.939Z,16.40
2017-08-13T05:21:27.254Z,16.40
2017-08-13T05:23:56.339Z,16.50
2017-08-13T05:26:24.623Z,16.50
2017-08-13T05:28:52.956Z,16.50
2017-08-13T05:31:21.256Z,16.60
2017-08-13T05:33:49.548Z,16.70
2017-08-13T05:36:17.880Z,16.70
2017-08-13T05:38:46.932Z,16.80
2017-08-13T05:41:15.483Z,16.70
2017-08-13T05:43:44.143Z,16.80
2017-08-13T05:46:12.517Z,16.80
2017-08-13T05:48:42.781Z,16.80
2017-08-13T05:51:11.899Z,16.80
2017-08-13T05:53:40.968Z,16.80
2017-08-13T05:56:09.283Z,16.80
2017-08-13T05:58:37.612Z,16.80
2017-08-13T06:01:05.910Z,16.90
2017-08-13T06:03:34.232Z,17.00
2017-08-13T06:06:02.515Z,17.00
2017-08-13T06:08:30.815Z,17.00
2017-08-13T06:10:59.138Z,17.00
2017-08-13T06:13:28.202Z,17.20
2017-08-13T06:15:56.528Z,17.20
2017-08-13T06:18:24.847Z,17.40
2017-08-13T06:20:53.177Z,17.60
2017-08-13T06:23:21.471Z,17.80
2017-08-13T06:25:50.548Z,17.70
2017-08-13T06:28:18.850Z,17.70
2017-08-13T06:30:47.138Z,17.80
2017-08-13T06:33:17.467Z,17.80
2017-08-13T06:35:45.779Z,18.00
2017-08-13T06:38:14.096Z,18.20
2017-08-13T06:40:42.620Z,18.30
2017-08-13T06:43:10.903Z,18.30
2017-08-13T06:45:39.272Z,18.20
2017-08-13T06:50:42.742Z,18.40
2017-08-13T06:53:11.031Z,18.80
2017-08-13T06:55:39.347Z,18.80
2017-08-13T06:58:07.635Z,18.90
2017-08-13T07:00:35.944Z,19.00
2017-08-13T07:03:04.286Z,19.00
2017-08-13T07:05:32.567Z,19.10
2017-08-13T07:13:55.656Z,19.40
2017-08-13T07:16:24.054Z,19.50
2017-08-13T07:18:54.033Z,19.80
2017-08-13T07:21:34.195Z,19.80
2017-08-13T07:24:02.520Z,19.80
2017-08-13T07:26:33.230Z,19.80
2017-08-13T07:29:02.344Z,19.80
2017-08-13T07:31:49.441Z,19.60
2017-08-13T07:34:17.761Z,19.90
2017-08-13T07:36:46.048Z,20.10
2017-08-13T07:39:14.469Z,20.10
2017-08-13T07:41:42.790Z,20.20
2017-08-13T07:44:11.853Z,20.40
2017-08-13T07:46:40.151Z,20.40
2017-08-13T07:49:08.494Z,20.60
2017-08-13T07:51:36.783Z,20.60
2017-08-13T07:54:05.319Z,20.40
2017-08-13T07:56:33.662Z,20.50
2017-08-13T07:59:01.962Z,20.80
2017-08-13T08:01:30.284Z,20.90
2017-08-13T08:04:09.052Z,21.10
2017-08-13T08:06:37.383Z,21.10
2017-08-13T08:09:06.472Z,21.20
2017-08-13T08:11:34.843Z,21.20
2017-08-13T08:14:03.149Z,21.40
2017-08-13T08:16:32.435Z,21.40
2017-08-13T08:19:01.524Z,21.80
2017-08-13T08:21:29.806Z,21.80
2017-08-13T08:23:58.088Z,21.80
2017-08-13T08:26:26.421Z,21.70
2017-08-13T08:28:54.758Z,21.20
2017-08-13T08:31:23.065Z,20.90
2017-08-13T08:33:51.652Z,20.80
2017-08-13T08:36:19.931Z,20.60
2017-08-13T08:38:48.525Z,20.30
2017-08-13T08:41:16.840Z,20.20
2017-08-13T08:43:45.175Z,20.10
2017-08-13T08:46:13.471Z,20.40
2017-08-13T08:48:41.892Z,20.80
2017-08-13T08:54:07.407Z,20.70
2017-08-13T08:56:35.716Z,20.50
2017-08-13T08:59:04.050Z,20.40
2017-08-13T09:01:32.376Z,20.10
2017-08-13T09:04:00.666Z,19.80
2017-08-13T09:06:28.955Z,19.70
2017-08-13T09:09:21.280Z,19.70
2017-08-13T09:11:50.541Z,20.00
2017-08-13T09:14:19.039Z,20.30
2017-08-13T09:16:47.354Z,20.70
2017-08-13T09:19:22.463Z,21.00
2017-08-13T09:21:50.775Z,21.30
2017-08-13T09:24:19.091Z,21.50
2017-08-13T09:26:47.436Z,21.70
2017-08-13T09:32:13.166Z,22.00
2017-08-13T09:34:42.273Z,22.20
2017-08-13T09:37:10.706Z,22.30
2017-08-13T09:39:39.107Z,22.10
2017-08-13T09:42:07.429Z,22.10
2017-08-13T09:44:35.725Z,21.90
2017-08-13T09:47:04.045Z,21.30
2017-08-13T09:49:32.388Z,21.30
2017-08-13T09:52:00.667Z,21.30
2017-08-13T09:54:28.964Z,21.30
2017-08-13T09:56:57.287Z,21.50
2017-08-13T09:59:25.585Z,21.80
2017-08-13T10:01:53.876Z,21.80
2017-08-13T10:04:22.183Z,21.50
2017-08-13T10:07:00.427Z,21.10
2017-08-13T10:09:28.732Z,21.10
2017-08-13T10:11:57.053Z,21.40
2017-08-13T10:14:26.107Z,21.40
2017-08-13T10:16:54.399Z,21.40
2017-08-13T10:19:22.724Z,21.70
2017-08-13T10:21:51.083Z,22.00
2017-08-13T10:24:19.341Z,21.80
2017-08-13T10:26:47.657Z,21.70
2017-08-13T10:29:30.878Z,21.00
2017-08-13T10:31:59.163Z,20.80
2017-08-13T10:34:27.491Z,20.80
2017-08-13T10:36:55.785Z,21.20
2017-08-13T10:39:24.081Z,21.30
2017-08-13T10:41:53.391Z,21.60
2017-08-13T10:44:21.700Z,21.70
2017-08-13T10:46:49.983Z,22.00
2017-08-13T10:49:18.299Z,21.60
2017-08-13T10:52:05.172Z,21.70
2017-08-13T10:54:33.492Z,22.00
2017-08-13T10:57:01.784Z,22.30
2017-08-13T10:59:30.107Z,22.30
2017-08-13T11:02:00.369Z,22.60
2017-08-13T11:04:28.673Z,22.40
2017-08-13T11:06:56.996Z,22.40
2017-08-13T11:09:25.294Z,22.30
2017-08-13T11:11:53.627Z,22.30
2017-08-13T11:14:21.959Z,22.60
2017-08-13T11:16:50.250Z,22.60
2017-08-13T11:19:18.546Z,22.80
2017-08-13T11:21:46.888Z,22.80
2017-08-13T11:24:15.953Z,23.10
2017-08-13T11:26:48.226Z,23.00
2017-08-13T11:29:16.543Z,23.20
2017-08-13T11:31:44.849Z,23.60
2017-08-13T11:34:13.210Z,23.70
2017-08-13T11:36:42.295Z,23.90
2017-08-13T11:39:10.570Z,23.90
2017-08-13T11:41:38.924Z,24.10
2017-08-13T11:44:09.054Z,24.20
2017-08-13T11:46:38.508Z,24.10
2017-08-13T11:49:07.619Z,23.10
2017-08-13T11:51:54.445Z,23.00
2017-08-13T11:54:22.779Z,22.80
2017-08-13T11:56:51.068Z,22.40
2017-08-13T11:59:22.052Z,22.30
2017-08-13T12:01:51.263Z,21.90
2017-08-13T12:04:20.762Z,21.90
2017-08-13T12:06:49.660Z,22.00
2017-08-13T12:09:24.187Z,22.20
2017-08-13T12:11:52.681Z,22.50
2017-08-13T12:14:21.064Z,22.70
2017-08-13T12:16:49.785Z,22.90
2017-08-13T12:19:18.099Z,22.90
2017-08-13T12:21:51.251Z,23.10
2017-08-13T12:24:19.724Z,23.30
2017-08-13T12:26:55.704Z,23.60
2017-08-13T12:29:24.040Z,23.60
2017-08-13T12:32:07.402Z,23.70
2017-08-13T12:34:35.733Z,23.70
2017-08-13T12:37:04.028Z,23.60
2017-08-13T12:39:32.572Z,23.30
2017-08-13T12:42:00.881Z,23.30
2017-08-13T12:44:29.950Z,23.40
2017-08-13T12:46:58.275Z,23.40
2017-08-13T12:49:38.397Z,23.70
2017-08-13T12:52:07.726Z,23.40
2017-08-13T12:54:36.030Z,23.30
2017-08-13T12:57:05.134Z,22.80
2017-08-13T12:59:33.473Z,22.70
2017-08-13T13:02:01.807Z,22.60
2017-08-13T13:04:30.112Z,22.70
2017-08-13T13:07:02.476Z,23.00
2017-08-13T13:09:30.780Z,23.50
2017-08-13T13:11:59.103Z,23.80
2017-08-13T13:14:27.447Z,23.70
2017-08-13T13:16:55.744Z,23.40
2017-08-13T13:19:24.045Z,23.50
2017-08-13T13:21:52.383Z,23.60
2017-08-13T13:24:28.632Z,23.90
2017-08-13T13:26:56.951Z,24.20
2017-08-13T13:29:26.012Z,24.50
2017-08-13T13:31:54.345Z,24.50
2017-08-13T13:34:22.637Z,24.50
2017-08-13T13:36:50.977Z,24.70
2017-08-13T13:39:19.299Z,24.80
2017-08-13T13:41:56.498Z,24.70
2017-08-13T13:44:25.596Z,24.90
2017-08-13T13:46:53.899Z,24.90
2017-08-13T13:49:22.232Z,24.90
2017-08-13T13:51:50.551Z,24.70
2017-08-13T13:54:18.907Z,24.50
2017-08-13T13:56:47.208Z,24.20
2017-08-13T13:59:15.540Z,23.90
2017-08-13T14:01:43.827Z,23.70
2017-08-13T14:04:12.165Z,23.70
2017-08-13T14:09:36.726Z,23.10
2017-08-13T14:12:05.065Z,22.60
2017-08-13T14:14:50.128Z,22.40
2017-08-13T14:17:18.696Z,22.20
2017-08-13T14:19:47.002Z,22.10
2017-08-13T14:22:16.073Z,21.90
2017-08-13T14:24:44.409Z,21.90
2017-08-13T14:27:12.726Z,21.90
2017-08-13T14:29:41.801Z,22.10
2017-08-13T14:32:10.109Z,22.10
2017-08-13T14:34:38.439Z,22.10
2017-08-13T14:37:06.723Z,22.20
2017-08-13T14:39:41.344Z,22.40
2017-08-13T14:42:10.661Z,22.70
2017-08-13T14:44:39.005Z,22.70
2017-08-13T14:47:07.364Z,22.60
2017-08-13T14:49:35.660Z,22.60
2017-08-13T14:52:04.018Z,22.50
2017-08-13T14:54:32.428Z,22.50
2017-08-13T14:57:00.723Z,22.60
2017-08-13T14:59:32.054Z,22.70
2017-08-13T15:02:00.393Z,22.60
2017-08-13T15:04:28.710Z,22.80
2017-08-13T15:07:01.763Z,23.10
2017-08-13T15:09:30.072Z,23.10
2017-08-13T15:11:58.395Z,23.20
2017-08-13T15:14:28.637Z,23.30
2017-08-13T15:16:57.784Z,23.00
2017-08-13T15:19:26.084Z,23.00
2017-08-13T15:22:01.159Z,23.00
2017-08-13T15:24:29.476Z,23.10
2017-08-13T15:26:57.755Z,22.90
2017-08-13T15:29:27.199Z,23.00
2017-08-13T15:31:55.525Z,23.10
2017-08-13T15:34:24.653Z,23.00
2017-08-13T15:36:53.011Z,23.00
2017-08-13T15:39:21.839Z,23.20
2017-08-13T15:41:50.156Z,23.80
2017-08-13T15:44:18.520Z,24.50
2017-08-13T15:46:46.883Z,25.60
2017-08-13T15:49:15.254Z,26.70
2017-08-13T15:51:43.618Z,27.60
2017-08-13T15:54:12.105Z,28.00
2017-08-13T15:56:41.202Z,28.40
2017-08-13T15:59:09.566Z,28.40
2017-08-13T16:01:38.023Z,28.50
2017-08-13T16:04:06.342Z,27.80
2017-08-13T16:06:35.432Z,26.30
2017-08-13T16:09:03.774Z,26.20
2017-08-13T16:11:32.924Z,25.20
2017-08-13T16:14:01.271Z,25.20
2017-08-13T16:16:47.631Z,24.40
2017-08-13T16:19:16.204Z,24.10
2017-08-13T16:21:45.430Z,23.90
2017-08-13T16:24:13.849Z,23.60
2017-08-13T16:26:42.184Z,23.70
2017-08-13T16:29:10.527Z,24.00
2017-08-13T16:31:38.844Z,24.00
2017-08-13T16:34:07.167Z,23.90
2017-08-13T16:36:35.479Z,23.70
2017-08-13T16:39:04.527Z,23.10
2017-08-13T16:41:32.811Z,23.10
2017-08-13T16:44:01.129Z,22.90
2017-08-13T16:46:29.523Z,22.70
2017-08-13T16:48:57.802Z,22.50
2017-08-13T16:51:26.116Z,22.40
2017-08-13T16:53:54.509Z,22.20
2017-08-13T16:56:22.896Z,22.10
2017-08-13T16:58:52.889Z,22.00
2017-08-13T17:01:21.163Z,21.80
2017-08-13T17:03:49.492Z,21.80
2017-08-13T17:06:17.795Z,21.60
2017-08-13T17:08:46.088Z,21.40
2017-08-13T17:11:14.467Z,21.30
2017-08-13T17:13:43.763Z,21.30
2017-08-13T17:16:12.172Z,21.20
2017-08-13T17:18:40.473Z,21.10
2017-08-13T17:21:09.200Z,21.00
2017-08-13T17:23:37.479Z,20.90
2017-08-13T17:26:06.568Z,20.90
2017-08-13T17:28:34.967Z,20.90
2017-08-13T17:31:03.254Z,20.80
2017-08-13T17:33:31.531Z,20.70
2017-08-13T17:35:59.915Z,20.60
2017-08-13T17:38:28.220Z,20.60
2017-08-13T17:40:56.537Z,20.60
2017-08-13T17:43:25.702Z,20.50
2017-08-13T17:45:54.004Z,20.50
2017-08-13T17:48:22.287Z,20.40
2017-08-13T17:50:50.684Z,20.40
2017-08-13T17:53:18.983Z,20.50
2017-08-13T17:55:47.309Z,20.40
2017-08-13T17:58:15.624Z,20.40
2017-08-13T18:00:43.913Z,20.30
2017-08-13T18:03:12.323Z,20.30
2017-08-13T18:05:40.624Z,20.20
2017-08-13T18:08:09.003Z,20.10
2017-08-13T18:10:37.395Z,20.10
2017-08-13T18:13:06.468Z,20.00
2017-08-13T18:15:34.813Z,19.90
2017-08-13T18:18:03.197Z,19.80
2017-08-13T18:20:31.507Z,19.70
2017-08-13T18:23:00.603Z,19.70
2017-08-13T18:25:29.655Z,19.70
2017-08-13T18:27:57.926Z,19.70
2017-08-13T18:30:26.278Z,19.70
2017-08-13T18:32:54.596Z,19.70
2017-08-13T18:35:23.659Z,19.70
2017-08-13T18:37:51.965Z,19.60
2017-08-13T18:40:20.371Z,19.70
2017-08-13T18:42:48.738Z,19.60
2017-08-13T18:45:17.024Z,19.50
2017-08-13T18:47:45.312Z,19.50
2017-08-13T18:50:13.623Z,19.50
2017-08-13T18:52:41.915Z,19.40
2017-08-13T18:55:10.228Z,19.40
2017-08-13T18:57:38.567Z,19.40
2017-08-13T19:00:06.892Z,19.40
2017-08-13T19:02:35.944Z,19.30
2017-08-13T19:05:04.215Z,19.30
2017-08-13T19:07:32.547Z,19.30
2017-08-13T19:10:00.826Z,19.30
2017-08-13T19:12:29.194Z,19.20
2017-08-13T19:14:57.533Z,19.20
2017-08-13T19:17:25.917Z,19.30
2017-08-13T19:19:54.236Z,19.20
2017-08-13T19:22:23.325Z,19.10
2017-08-13T19:24:51.602Z,19.10
2017-08-13T19:27:19.996Z,19.10
2017-08-13T19:29:48.388Z,19.00
2017-08-13T19:32:16.669Z,19.00
2017-08-13T19:34:44.975Z,19.00
2017-08-13T19:37:14.065Z,19.10
2017-08-13T19:39:42.339Z,19.00
2017-08-13T19:42:10.759Z,19.00
2017-08-13T19:44:39.044Z,18.90
2017-08-13T19:47:07.368Z,18.70
2017-08-13T19:49:35.639Z,18.70
2017-08-13T19:52:04.687Z,18.80
2017-08-13T19:54:32.999Z,18.70
2017-08-13T19:57:01.319Z,18.70
2017-08-13T19:59:29.627Z,18.70
2017-08-13T20:01:57.992Z,18.60
2017-08-13T20:04:26.310Z,18.60
2017-08-13T20:06:55.804Z,18.60
2017-08-13T20:09:24.130Z,18.60
2017-08-13T20:11:52.473Z,18.50
2017-08-13T20:14:20.865Z,18.50
2017-08-13T20:16:49.175Z,18.40
2017-08-13T20:19:18.222Z,18.40
2017-08-13T20:21:46.660Z,18.30
2017-08-13T20:24:15.048Z,18.30
2017-08-13T20:26:43.332Z,18.20
2017-08-13T20:29:11.719Z,18.10
2017-08-13T20:31:39.998Z,18.10
2017-08-13T20:34:08.300Z,18.00
2017-08-13T20:36:36.699Z,18.00
2017-08-13T20:39:05.071Z,18.00
2017-08-13T20:41:33.393Z,17.80
2017-08-13T20:44:02.444Z,17.70
2017-08-13T20:46:30.772Z,17.60
2017-08-13T20:48:59.046Z,17.70
2017-08-13T20:51:27.356Z,17.70
2017-08-13T20:53:55.739Z,17.70
2017-08-13T20:56:24.032Z,17.70
2017-08-13T20:58:52.338Z,17.70
2017-08-13T21:01:21.444Z,17.70
2017-08-13T21:03:50.655Z,17.70
2017-08-13T21:06:19.739Z,17.70
2017-08-13T21:08:48.020Z,17.60
2017-08-13T21:11:16.340Z,17.60
2017-08-13T21:13:45.396Z,17.50
2017-08-13T21:16:13.671Z,17.40
2017-08-13T21:18:41.991Z,17.30
2017-08-13T21:21:10.297Z,17.30
2017-08-13T21:23:38.584Z,17.20
2017-08-13T21:26:06.887Z,17.20
2017-08-13T21:28:35.975Z,17.10
2017-08-13T21:31:04.304Z,17.10
2017-08-13T21:33:32.599Z,17.10
2017-08-13T21:36:00.953Z,17.10
2017-08-13T21:38:29.258Z,17.10
2017-08-13T21:40:58.320Z,16.90
2017-08-13T21:43:26.642Z,16.80
2017-08-13T21:45:54.971Z,16.80
2017-08-13T21:48:23.248Z,16.90
2017-08-13T21:50:51.572Z,16.80
2017-08-13T21:53:19.851Z,16.90
2017-08-13T21:55:48.185Z,17.00
2017-08-13T21:58:16.469Z,17.10
2017-08-13T22:00:44.742Z,17.00
2017-08-13T22:03:13.055Z,17.00
2017-08-13T22:05:41.380Z,17.00
2017-08-13T22:08:09.659Z,17.10
2017-08-13T22:10:37.954Z,17.10
2017-08-13T22:13:06.995Z,17.20
2017-08-13T22:15:35.285Z,17.10
2017-08-13T22:18:03.607Z,17.10
2017-08-13T22:20:31.911Z,17.00
2017-08-13T22:23:00.994Z,16.90
2017-08-13T22:25:29.329Z,16.90
2017-08-13T22:27:57.603Z,16.90
2017-08-13T22:30:26.664Z,16.90
2017-08-13T22:32:54.992Z,16.80
2017-08-13T22:35:24.049Z,16.70
2017-08-13T22:37:52.376Z,16.70
2017-08-13T22:40:20.701Z,16.80
2017-08-13T22:42:48.975Z,16.90
2017-08-13T22:45:18.063Z,16.90
2017-08-13T22:47:46.376Z,16.80
2017-08-13T22:50:15.419Z,16.90
2017-08-13T22:52:43.728Z,16.90
2017-08-13T22:55:12.016Z,16.90
2017-08-13T22:57:40.295Z,16.80
2017-08-13T23:00:08.619Z,16.80
2017-08-13T23:02:37.780Z,16.80
2017-08-13T23:05:06.181Z,16.80
2017-08-13T23:07:34.794Z,16.70
2017-08-13T23:10:03.108Z,16.70
2017-08-13T23:12:31.433Z,16.70
2017-08-13T23:14:59.775Z,16.70
2017-08-13T23:17:28.108Z,16.70
2017-08-13T23:19:56.424Z,16.70
2017-08-13T23:22:24.716Z,16.50
2017-08-13T23:24:53.139Z,16.40
2017-08-13T23:27:21.436Z,16.50
2017-08-13T23:29:49.751Z,16.60
2017-08-13T23:32:18.044Z,16.60
2017-08-13T23:34:46.326Z,16.50
2017-08-13T23:37:15.412Z,16.50
2017-08-13T23:39:43.791Z,16.50
2017-08-13T23:42:12.108Z,16.50
2017-08-13T23:44:41.195Z,16.50
2017-08-13T23:47:09.584Z,16.50
2017-08-13T23:49:37.963Z,16.50
2017-08-13T23:52:06.251Z,16.50
2017-08-13T23:54:34.559Z,16.40
2017-08-13T23:57:02.863Z,16.40
2017-08-13T23:59:31.938Z,16.40
